sensor_id;sensor_type;location;lat;lon;timestamp;pressure;altitude;pressure_sealevel;temperature;humidity
36692;BME280;22678;52.052;4.242;2023-06-05T00:00:20;102383.84;;;14.33;63.19
36692;BME280;22678;52.052;4.242;2023-06-05T00:02:46;102417.38;;;14.47;63.12
36692;BME280;22678;52.052;4.242;2023-06-05T00:05:12;102439.47;;;14.61;63.53
36692;BME280;22678;52.052;4.242;2023-06-05T00:07:38;102423.56;;;14.49;63.36
36692;BME280;22678;52.052;4.242;2023-06-05T00:10:07;102430.59;;;14.48;63.71
36692;BME280;22678;52.052;4.242;2023-06-05T00:12:34;102409.44;;;14.31;63.83
36692;BME280;22678;52.052;4.242;2023-06-05T00:14:59;102432.38;;;14.48;63.76
36692;BME280;22678;52.052;4.242;2023-06-05T00:17:25;102435.03;;;14.40;64.04
36692;BME280;22678;52.052;4.242;2023-06-05T00:19:50;102453.56;;;14.49;63.91
36692;BME280;22678;52.052;4.242;2023-06-05T00:22:16;102403.22;;;14.20;64.13
36692;BME280;22678;52.052;4.242;2023-06-05T00:24:41;102397.94;;;14.20;64.18
36692;BME280;22678;52.052;4.242;2023-06-05T00:27:06;102411.16;;;14.22;64.26
36692;BME280;22678;52.052;4.242;2023-06-05T00:29:32;102427.94;;;14.30;64.27
36692;BME280;22678;52.052;4.242;2023-06-05T00:31:57;102431.47;;;14.27;64.36
36692;BME280;22678;52.052;4.242;2023-06-05T00:34:23;102433.25;;;14.24;64.40
36692;BME280;22678;52.052;4.242;2023-06-05T00:36:48;102383.78;;;13.92;64.59
36692;BME280;22678;52.052;4.242;2023-06-05T00:39:17;102455.28;;;14.32;64.86
36692;BME280;22678;52.052;4.242;2023-06-05T00:41:44;102407.59;;;14.01;64.80
36692;BME280;22678;52.052;4.242;2023-06-05T00:44:10;102404.06;;;13.96;64.98
36692;BME280;22678;52.052;4.242;2023-06-05T00:46:36;102416.41;;;14.00;64.92
36692;BME280;22678;52.052;4.242;2023-06-05T00:49:02;102446.44;;;14.17;65.20
36692;BME280;22678;52.052;4.242;2023-06-05T00:51:27;102397.84;;;13.83;65.28
36692;BME280;22678;52.052;4.242;2023-06-05T00:53:53;102461.44;;;14.14;65.57
36692;BME280;22678;52.052;4.242;2023-06-05T00:56:18;102410.22;;;13.84;65.51
36692;BME280;22678;52.052;4.242;2023-06-05T00:58:47;102437.53;;;13.91;65.59
36692;BME280;22678;52.052;4.242;2023-06-05T01:01:13;102430.47;;;13.87;65.82
36692;BME280;22678;52.052;4.242;2023-06-05T01:03:40;102443.75;;;13.94;65.77
36692;BME280;22678;52.052;4.242;2023-06-05T01:06:05;102434.00;;;13.82;66.12
36692;BME280;22678;52.052;4.242;2023-06-05T01:08:35;102430.44;;;13.77;65.98
36692;BME280;22678;52.052;4.242;2023-06-05T01:14:19;102434.84;;;13.72;66.44
36692;BME280;22678;52.052;4.242;2023-06-05T01:16:50;102425.16;;;13.74;66.36
36692;BME280;22678;52.052;4.242;2023-06-05T01:19:22;102442.78;;;13.80;66.38
36692;BME280;22678;52.052;4.242;2023-06-05T01:21:54;102436.59;;;13.78;66.68
36692;BME280;22678;52.052;4.242;2023-06-05T01:24:21;102427.75;;;13.63;66.85
36692;BME280;22678;52.052;4.242;2023-06-05T01:29:26;102420.66;;;13.53;67.24
36692;BME280;22678;52.052;4.242;2023-06-05T01:31:58;102417.97;;;13.48;67.05
36692;BME280;22678;52.052;4.242;2023-06-05T01:34:28;102414.44;;;13.46;67.12
36692;BME280;22678;52.052;4.242;2023-06-05T01:36:55;102415.31;;;13.47;67.18
36692;BME280;22678;52.052;4.242;2023-06-05T01:39:21;102396.78;;;13.36;67.44
36692;BME280;22678;52.052;4.242;2023-06-05T01:41:48;102390.56;;;13.32;67.30
36692;BME280;22678;52.052;4.242;2023-06-05T01:44:14;102372.88;;;13.18;67.67
36692;BME280;22678;52.052;4.242;2023-06-05T01:46:41;102425.94;;;13.52;67.38
36692;BME280;22678;52.052;4.242;2023-06-05T01:49:07;102407.34;;;13.38;67.60
36692;BME280;22678;52.052;4.242;2023-06-05T01:51:33;102395.78;;;13.20;67.73
36692;BME280;22678;52.052;4.242;2023-06-05T01:53:59;102411.69;;;13.31;67.90
36692;BME280;22678;52.052;4.242;2023-06-05T01:56:24;102421.34;;;13.26;67.93
36692;BME280;22678;52.052;4.242;2023-06-05T01:58:50;102413.41;;;13.26;68.21
36692;BME280;22678;52.052;4.242;2023-06-05T02:01:18;102401.94;;;13.18;68.29
36692;BME280;22678;52.052;4.242;2023-06-05T02:03:47;102389.50;;;13.03;68.28
36692;BME280;22678;52.052;4.242;2023-06-05T02:06:14;102419.53;;;13.19;68.45
36692;BME280;22678;52.052;4.242;2023-06-05T02:08:40;102393.91;;;13.01;68.68
36692;BME280;22678;52.052;4.242;2023-06-05T02:11:05;102423.09;;;13.21;68.76
36692;BME280;22678;52.052;4.242;2023-06-05T02:13:41;102410.72;;;13.13;68.72
36692;BME280;22678;52.052;4.242;2023-06-05T02:16:10;102385.97;;;12.99;69.05
36692;BME280;22678;52.052;4.242;2023-06-05T02:18:35;102423.06;;;13.18;68.97
36692;BME280;22678;52.052;4.242;2023-06-05T02:21:02;102416.84;;;13.09;69.02
36692;BME280;22678;52.052;4.242;2023-06-05T02:23:28;102404.44;;;12.97;69.29
36692;BME280;22678;52.052;4.242;2023-06-05T02:25:53;102408.88;;;13.00;69.27
36692;BME280;22678;52.052;4.242;2023-06-05T02:28:19;102393.84;;;12.93;69.11
36692;BME280;22678;52.052;4.242;2023-06-05T02:30:45;102417.69;;;13.04;69.48
36692;BME280;22678;52.052;4.242;2023-06-05T02:33:13;102400.00;;;12.92;69.34
36692;BME280;22678;52.052;4.242;2023-06-05T02:35:40;102414.09;;;12.94;69.39
36692;BME280;22678;52.052;4.242;2023-06-05T02:38:09;102394.66;;;12.83;69.52
36692;BME280;22678;52.052;4.242;2023-06-05T02:40:38;102407.91;;;12.87;69.67
36692;BME280;22678;52.052;4.242;2023-06-05T02:43:03;102404.34;;;12.85;69.92
36692;BME280;22678;52.052;4.242;2023-06-05T02:45:33;102406.94;;;12.80;69.96
36692;BME280;22678;52.052;4.242;2023-06-05T02:47:58;102386.66;;;12.73;69.86
36692;BME280;22678;52.052;4.242;2023-06-05T02:50:24;102412.22;;;12.80;70.11
36692;BME280;22678;52.052;4.242;2023-06-05T02:52:49;102391.03;;;12.67;70.19
36692;BME280;22678;52.052;4.242;2023-06-05T02:55:15;102369.84;;;12.56;70.34
36692;BME280;22678;52.052;4.242;2023-06-05T02:57:41;102395.47;;;12.71;70.57
36692;BME280;22678;52.052;4.242;2023-06-05T03:00:11;102407.75;;;12.72;70.59
36692;BME280;22678;52.052;4.242;2023-06-05T03:02:40;102408.66;;;12.69;70.78
36692;BME280;22678;52.052;4.242;2023-06-05T03:05:05;102404.22;;;12.65;70.68
36692;BME280;22678;52.052;4.242;2023-06-05T03:07:33;102395.38;;;12.63;70.77
36692;BME280;22678;52.052;4.242;2023-06-05T03:10:00;102381.25;;;12.53;71.16
36692;BME280;22678;52.052;4.242;2023-06-05T03:12:25;102403.28;;;12.63;71.33
36692;BME280;22678;52.052;4.242;2023-06-05T03:14:51;102353.78;;;12.31;71.61
36692;BME280;22678;52.052;4.242;2023-06-05T03:17:16;102350.25;;;12.32;71.43
36692;BME280;22678;52.052;4.242;2023-06-05T03:19:41;102390.06;;;12.57;71.67
36692;BME280;22678;52.052;4.242;2023-06-05T03:22:07;102378.53;;;12.46;71.71
36692;BME280;22678;52.052;4.242;2023-06-05T03:24:32;102351.16;;;12.33;71.90
36692;BME280;22678;52.052;4.242;2023-06-05T03:26:58;102376.78;;;12.48;71.91
36692;BME280;22678;52.052;4.242;2023-06-05T03:29:23;102378.53;;;12.46;72.04
36692;BME280;22678;52.052;4.242;2023-06-05T03:31:48;102350.22;;;12.27;72.15
36692;BME280;22678;52.052;4.242;2023-06-05T03:34:14;102359.97;;;12.36;72.51
36692;BME280;22678;52.052;4.242;2023-06-05T03:36:39;102367.03;;;12.39;72.56
36692;BME280;22678;52.052;4.242;2023-06-05T03:39:06;102362.63;;;12.36;72.47
36692;BME280;22678;52.052;4.242;2023-06-05T03:41:31;102370.56;;;12.41;72.63
36692;BME280;22678;52.052;4.242;2023-06-05T03:43:57;102388.25;;;12.54;72.61
36692;BME280;22678;52.052;4.242;2023-06-05T03:46:25;102344.91;;;12.23;72.81
36692;BME280;22678;52.052;4.242;2023-06-05T03:48:50;102371.50;;;12.44;72.89
36692;BME280;22678;52.052;4.242;2023-06-05T03:51:20;102368.84;;;12.43;73.00
36692;BME280;22678;52.052;4.242;2023-06-05T03:53:45;102332.56;;;12.19;73.14
36692;BME280;22678;52.052;4.242;2023-06-05T03:56:12;102350.22;;;12.29;73.12
36692;BME280;22678;52.052;4.242;2023-06-05T03:58:40;102390.84;;;12.47;73.15
36692;BME280;22678;52.052;4.242;2023-06-05T04:01:06;102369.69;;;12.39;73.45
36692;BME280;22678;52.052;4.242;2023-06-05T04:03:32;102381.19;;;12.47;73.36
36692;BME280;22678;52.052;4.242;2023-06-05T04:05:57;102385.59;;;12.50;73.38
36692;BME280;22678;52.052;4.242;2023-06-05T04:08:23;102390.97;;;12.59;73.49
36692;BME280;22678;52.052;4.242;2023-06-05T04:10:49;102382.09;;;12.52;73.61
36692;BME280;22678;52.052;4.242;2023-06-05T04:13:15;102381.25;;;12.53;73.59
36692;BME280;22678;52.052;4.242;2023-06-05T04:15:40;102394.47;;;12.58;73.97
36692;BME280;22678;52.052;4.242;2023-06-05T04:18:05;102383.84;;;12.49;73.71
36692;BME280;22678;52.052;4.242;2023-06-05T04:20:31;102405.91;;;12.61;74.03
36692;BME280;22678;52.052;4.242;2023-06-05T04:22:56;102397.09;;;12.58;73.96
36692;BME280;22678;52.052;4.242;2023-06-05T04:25:21;102394.47;;;12.58;74.07
36692;BME280;22678;52.052;4.242;2023-06-05T04:27:49;102401.56;;;12.67;74.22
36692;BME280;22678;52.052;4.242;2023-06-05T04:30:15;102405.13;;;12.70;74.15
36692;BME280;22678;52.052;4.242;2023-06-05T04:32:41;102400.72;;;12.66;74.31
36692;BME280;22678;52.052;4.242;2023-06-05T04:35:07;102390.09;;;12.63;74.17
36692;BME280;22678;52.052;4.242;2023-06-05T04:37:34;102403.38;;;12.72;74.10
36692;BME280;22678;52.052;4.242;2023-06-05T04:40:00;102389.25;;;12.67;74.20
36692;BME280;22678;52.052;4.242;2023-06-05T04:42:30;102417.50;;;12.77;74.26
36692;BME280;22678;52.052;4.242;2023-06-05T04:45:01;102418.41;;;12.79;74.21
36692;BME280;22678;52.052;4.242;2023-06-05T04:47:28;102406.94;;;12.77;74.23
36692;BME280;22678;52.052;4.242;2023-06-05T04:49:54;102415.78;;;12.83;74.34
36692;BME280;22678;52.052;4.242;2023-06-05T04:52:20;102421.09;;;12.86;74.32
36692;BME280;22678;52.052;4.242;2023-06-05T04:54:46;102424.59;;;12.88;74.37
36692;BME280;22678;52.052;4.242;2023-06-05T04:57:12;102408.75;;;12.85;74.11
36692;BME280;22678;52.052;4.242;2023-06-05T04:59:37;102411.41;;;12.89;74.34
36692;BME280;22678;52.052;4.242;2023-06-05T05:02:03;102421.16;;;12.95;73.98
36692;BME280;22678;52.052;4.242;2023-06-05T05:04:28;102417.66;;;12.99;74.13
36692;BME280;22678;52.052;4.242;2023-06-05T05:06:55;102430.00;;;13.00;74.08
36692;BME280;22678;52.052;4.242;2023-06-05T05:09:28;102422.94;;;12.99;73.77
36692;BME280;22678;52.052;4.242;2023-06-05T05:11:54;102406.16;;;12.92;74.00
36692;BME280;22678;52.052;4.242;2023-06-05T05:14:19;102413.22;;;12.96;73.60
36692;BME280;22678;52.052;4.242;2023-06-05T05:16:45;102415.91;;;13.01;73.75
36692;BME280;22678;52.052;4.242;2023-06-05T05:19:10;102416.81;;;13.03;73.42
36692;BME280;22678;52.052;4.242;2023-06-05T05:21:35;102400.88;;;12.92;73.63
36692;BME280;22678;52.052;4.242;2023-06-05T05:24:01;102402.66;;;12.95;73.35
36692;BME280;22678;52.052;4.242;2023-06-05T05:26:27;102400.94;;;13.00;73.24
36692;BME280;22678;52.052;4.242;2023-06-05T05:28:52;102423.00;;;13.11;73.23
36692;BME280;22678;52.052;4.242;2023-06-05T05:31:17;102417.75;;;13.14;73.29
36692;BME280;22678;52.052;4.242;2023-06-05T05:33:43;102405.44;;;13.17;72.90
36692;BME280;22678;52.052;4.242;2023-06-05T05:36:08;102416.06;;;13.26;72.73
36692;BME280;22678;52.052;4.242;2023-06-05T05:38:33;102412.63;;;13.36;72.56
36692;BME280;22678;52.052;4.242;2023-06-05T05:40:59;102414.44;;;13.46;72.52
36692;BME280;22678;52.052;4.242;2023-06-05T05:43:24;102420.69;;;13.59;72.28
36692;BME280;22678;52.052;4.242;2023-06-05T05:45:50;102407.47;;;13.61;71.65
36692;BME280;22678;52.052;4.242;2023-06-05T05:48:16;102415.41;;;13.69;71.26
36692;BME280;22678;52.052;4.242;2023-06-05T05:50:42;102398.66;;;13.62;71.03
36692;BME280;22678;52.052;4.242;2023-06-05T05:53:07;102403.13;;;13.71;71.03
36692;BME280;22678;52.052;4.242;2023-06-05T05:55:33;102399.59;;;13.78;70.70
36692;BME280;22678;52.052;4.242;2023-06-05T05:57:58;102404.94;;;13.87;70.54
36692;BME280;22678;52.052;4.242;2023-06-05T06:00:23;102391.69;;;13.86;70.33
36692;BME280;22678;52.052;4.242;2023-06-05T06:02:49;102410.25;;;14.07;69.48
36692;BME280;22678;52.052;4.242;2023-06-05T06:05:15;102409.38;;;14.14;69.56
36692;BME280;22678;52.052;4.242;2023-06-05T06:07:42;102399.72;;;14.18;68.94
36692;BME280;22678;52.052;4.242;2023-06-05T06:10:08;102406.78;;;14.34;68.61
36692;BME280;22678;52.052;4.242;2023-06-05T06:12:34;102416.50;;;14.46;68.24
36692;BME280;22678;52.052;4.242;2023-06-05T06:15:00;102414.72;;;14.48;67.83
36692;BME280;22678;52.052;4.242;2023-06-05T06:17:25;102412.97;;;14.47;67.46
36692;BME280;22678;52.052;4.242;2023-06-05T06:19:52;102419.16;;;14.62;67.67
36692;BME280;22678;52.052;4.242;2023-06-05T06:22:18;102427.13;;;14.71;67.14
36692;BME280;22678;52.052;4.242;2023-06-05T06:24:43;102418.31;;;14.78;66.73
36692;BME280;22678;52.052;4.242;2023-06-05T06:27:09;102409.47;;;14.92;66.74
36692;BME280;22678;52.052;4.242;2023-06-05T06:29:37;102421.75;;;15.17;66.61
36692;BME280;22678;52.052;4.242;2023-06-05T06:32:02;102431.44;;;15.45;65.73
36692;BME280;22678;52.052;4.242;2023-06-05T06:34:28;102427.88;;;15.52;64.27
36692;BME280;22678;52.052;4.242;2023-06-05T06:36:54;102435.78;;;15.59;64.14
36692;BME280;22678;52.052;4.242;2023-06-05T06:39:19;102419.00;;;15.56;63.41
36692;BME280;22678;52.052;4.242;2023-06-05T06:41:45;102422.53;;;15.58;63.93
36692;BME280;22678;52.052;4.242;2023-06-05T06:44:10;102430.47;;;15.66;63.64
36692;BME280;22678;52.052;4.242;2023-06-05T06:46:36;102425.13;;;15.81;63.34
36692;BME280;22678;52.052;4.242;2023-06-05T06:49:02;102430.34;;;15.98;62.98
36692;BME280;22678;52.052;4.242;2023-06-05T06:51:27;102415.25;;;16.08;62.51
36692;BME280;22678;52.052;4.242;2023-06-05T06:53:52;102426.59;;;16.33;62.52
36692;BME280;22678;52.052;4.242;2023-06-05T06:56:18;102401.75;;;16.40;62.20
36692;BME280;22678;52.052;4.242;2023-06-05T06:58:44;102433.44;;;16.63;61.56
36692;BME280;22678;52.052;4.242;2023-06-05T07:01:10;102433.34;;;16.76;60.87
36692;BME280;22678;52.052;4.242;2023-06-05T07:03:37;102413.84;;;16.74;59.82
36692;BME280;22678;52.052;4.242;2023-06-05T07:06:03;102433.25;;;16.85;60.05
36692;BME280;22678;52.052;4.242;2023-06-05T07:08:28;102429.66;;;16.95;59.64
36692;BME280;22678;52.052;4.242;2023-06-05T07:10:54;102426.91;;;17.03;59.33
36692;BME280;22678;52.052;4.242;2023-06-05T07:13:21;102431.19;;;17.20;59.05
36692;BME280;22678;52.052;4.242;2023-06-05T07:15:46;102436.38;;;17.30;58.39
36692;BME280;22678;52.052;4.242;2023-06-05T07:18:12;102436.31;;;17.37;57.67
36692;BME280;22678;52.052;4.242;2023-06-05T07:20:37;102430.13;;;17.36;57.38
36692;BME280;22678;52.052;4.242;2023-06-05T07:23:03;102438.88;;;17.44;57.07
36692;BME280;22678;52.052;4.242;2023-06-05T07:25:28;102433.50;;;17.49;56.99
36692;BME280;22678;52.052;4.242;2023-06-05T07:27:53;102429.88;;;17.56;56.90
36692;BME280;22678;52.052;4.242;2023-06-05T07:30:19;102430.69;;;17.63;56.10
36692;BME280;22678;52.052;4.242;2023-06-05T07:32:45;102437.69;;;17.72;56.12
36692;BME280;22678;52.052;4.242;2023-06-05T07:35:10;102433.91;;;17.88;56.15
36692;BME280;22678;52.052;4.242;2023-06-05T07:37:36;102432.91;;;17.98;55.57
36692;BME280;22678;52.052;4.242;2023-06-05T07:40:02;102441.63;;;18.11;55.11
36692;BME280;22678;52.052;4.242;2023-06-05T07:42:28;102432.59;;;18.21;55.39
36692;BME280;22678;52.052;4.242;2023-06-05T07:44:53;102427.09;;;18.32;55.04
36692;BME280;22678;52.052;4.242;2023-06-05T07:47:18;102417.28;;;18.37;54.09
36692;BME280;22678;52.052;4.242;2023-06-05T07:49:43;102424.16;;;18.51;54.01
36692;BME280;22678;52.052;4.242;2023-06-05T07:52:09;102423.94;;;18.63;53.78
36692;BME280;22678;52.052;4.242;2023-06-05T07:54:35;102424.72;;;18.71;53.44
36692;BME280;22678;52.052;4.242;2023-06-05T07:57:01;102437.81;;;18.84;53.26
36692;BME280;22678;52.052;4.242;2023-06-05T07:59:26;102437.66;;;18.93;52.66
36692;BME280;22678;52.052;4.242;2023-06-05T08:01:53;102432.00;;;19.12;52.87
36692;BME280;22678;52.052;4.242;2023-06-05T08:04:20;102431.69;;;19.27;52.61
36692;BME280;22678;52.052;4.242;2023-06-05T08:06:50;102427.84;;;19.43;52.49
36692;BME280;22678;52.052;4.242;2023-06-05T08:09:16;102423.06;;;19.59;52.43
36692;BME280;22678;52.052;4.242;2023-06-05T08:11:41;102442.25;;;19.78;51.51
36692;BME280;22678;52.052;4.242;2023-06-05T08:14:07;102434.25;;;19.77;51.09
36692;BME280;22678;52.052;4.242;2023-06-05T08:16:33;102434.19;;;19.83;51.12
36692;BME280;22678;52.052;4.242;2023-06-05T08:18:58;102409.44;;;19.73;50.88
36692;BME280;22678;52.052;4.242;2023-06-05T08:21:24;102430.41;;;19.93;50.48
36692;BME280;22678;52.052;4.242;2023-06-05T08:23:49;102431.91;;;20.05;50.38
36692;BME280;22678;52.052;4.242;2023-06-05T08:26:14;102417.63;;;20.06;49.40
36692;BME280;22678;52.052;4.242;2023-06-05T08:28:41;102420.94;;;20.18;49.84
36692;BME280;22678;52.052;4.242;2023-06-05T08:31:07;102426.88;;;20.30;50.04
36692;BME280;22678;52.052;4.242;2023-06-05T08:33:33;102420.28;;;20.45;49.69
36692;BME280;22678;52.052;4.242;2023-06-05T08:35:59;102418.13;;;20.60;49.16
36692;BME280;22678;52.052;4.242;2023-06-05T08:38:24;102403.63;;;20.72;48.94
36692;BME280;22678;52.052;4.242;2023-06-05T08:41:00;102424.47;;;20.92;48.75
36692;BME280;22678;52.052;4.242;2023-06-05T08:43:26;102403.06;;;20.92;48.25
36692;BME280;22678;52.052;4.242;2023-06-05T08:45:53;102412.63;;;21.00;47.97
36692;BME280;22678;52.052;4.242;2023-06-05T08:48:21;102415.19;;;21.05;47.79
36692;BME280;22678;52.052;4.242;2023-06-05T08:50:50;102417.81;;;21.08;47.53
36692;BME280;22678;52.052;4.242;2023-06-05T08:53:17;102420.38;;;21.11;47.44
36692;BME280;22678;52.052;4.242;2023-06-05T08:55:45;102414.88;;;21.17;47.38
36692;BME280;22678;52.052;4.242;2023-06-05T08:58:12;102412.75;;;21.29;47.29
36692;BME280;22678;52.052;4.242;2023-06-05T09:00:38;102406.44;;;21.31;47.02
36692;BME280;22678;52.052;4.242;2023-06-05T09:03:03;102410.41;;;21.48;47.28
36692;BME280;22678;52.052;4.242;2023-06-05T09:05:28;102401.19;;;21.60;47.17
36692;BME280;22678;52.052;4.242;2023-06-05T09:07:54;102399.16;;;21.68;47.03
36692;BME280;22678;52.052;4.242;2023-06-05T09:10:24;102413.31;;;21.73;46.39
36692;BME280;22678;52.052;4.242;2023-06-05T09:13:03;102400.97;;;21.67;46.15
36692;BME280;22678;52.052;4.242;2023-06-05T09:15:33;102395.66;;;21.66;45.94
36692;BME280;22678;52.052;4.242;2023-06-05T09:18:12;102405.31;;;21.72;46.02
36692;BME280;22678;52.052;4.242;2023-06-05T09:20:39;102393.53;;;21.77;45.83
36692;BME280;22678;52.052;4.242;2023-06-05T09:23:27;102400.34;;;21.87;45.91
36692;BME280;22678;52.052;4.242;2023-06-05T09:25:53;102408.16;;;21.95;46.01
36692;BME280;22678;52.052;4.242;2023-06-05T09:28:19;102404.63;;;21.93;45.53
36692;BME280;22678;52.052;4.242;2023-06-05T09:33:19;102396.28;;;22.04;45.47
36692;BME280;22678;52.052;4.242;2023-06-05T09:35:44;102404.06;;;22.12;45.36
36692;BME280;22678;52.052;4.242;2023-06-05T09:38:25;102401.25;;;22.16;44.89
36692;BME280;22678;52.052;4.242;2023-06-05T09:40:51;102390.63;;;22.13;45.12
36692;BME280;22678;52.052;4.242;2023-06-05T09:43:21;102392.34;;;22.16;45.66
36692;BME280;22678;52.052;4.242;2023-06-05T09:45:47;102401.94;;;22.21;45.22
36692;BME280;22678;52.052;4.242;2023-06-05T09:48:14;102403.75;;;22.21;44.95
36692;BME280;22678;52.052;4.242;2023-06-05T09:50:39;102398.16;;;22.29;45.13
36692;BME280;22678;52.052;4.242;2023-06-05T09:53:06;102407.56;;;22.42;44.97
36692;BME280;22678;52.052;4.242;2023-06-05T09:55:34;102401.34;;;22.42;44.57
36692;BME280;22678;52.052;4.242;2023-06-05T09:58:04;102413.56;;;22.50;44.36
36692;BME280;22678;52.052;4.242;2023-06-05T10:00:37;102416.34;;;22.47;44.01
36692;BME280;22678;52.052;4.242;2023-06-05T10:03:10;102408.25;;;22.49;43.70
36692;BME280;22678;52.052;4.242;2023-06-05T10:05:38;102414.47;;;22.49;44.34
36692;BME280;22678;52.052;4.242;2023-06-05T10:08:06;102412.22;;;22.64;44.65
36692;BME280;22678;52.052;4.242;2023-06-05T10:10:32;102412.78;;;22.73;43.90
36692;BME280;22678;52.052;4.242;2023-06-05T10:12:59;102400.13;;;22.77;43.67
36692;BME280;22678;52.052;4.242;2023-06-05T10:15:26;102407.84;;;22.86;43.53
36692;BME280;22678;52.052;4.242;2023-06-05T10:17:52;102392.66;;;22.87;43.23
36692;BME280;22678;52.052;4.242;2023-06-05T10:20:18;102416.28;;;23.01;43.56
36692;BME280;22678;52.052;4.242;2023-06-05T10:22:44;102402.19;;;22.96;43.01
36692;BME280;22678;52.052;4.242;2023-06-05T10:25:10;102403.78;;;23.01;43.36
36692;BME280;22678;52.052;4.242;2023-06-05T10:28:05;102393.84;;;23.03;43.14
36692;BME280;22678;52.052;4.242;2023-06-05T10:35:52;102382.25;;;23.03;42.92
36692;BME280;22678;52.052;4.242;2023-06-05T10:38:23;102397.06;;;23.15;42.75
36692;BME280;22678;52.052;4.242;2023-06-05T10:40:57;102399.81;;;23.13;42.46
36692;BME280;22678;52.052;4.242;2023-06-05T10:43:35;102404.00;;;23.20;42.86
36692;BME280;22678;52.052;4.242;2023-06-05T10:46:02;102405.38;;;23.32;42.82
36692;BME280;22678;52.052;4.242;2023-06-05T10:51:40;102417.31;;;23.71;42.65
36692;BME280;22678;52.052;4.242;2023-06-05T10:59:17;102403.31;;;23.86;41.31
36692;BME280;22678;52.052;4.242;2023-06-05T11:07:41;102408.25;;;23.50;41.63
36692;BME280;22678;52.052;4.242;2023-06-05T11:10:09;102383.53;;;23.41;41.73
36692;BME280;22678;52.052;4.242;2023-06-05T11:15:05;102383.81;;;23.57;41.90
36692;BME280;22678;52.052;4.242;2023-06-05T11:17:34;102393.34;;;23.66;41.58
36692;BME280;22678;52.052;4.242;2023-06-05T11:20:00;102383.59;;;23.64;41.32
36692;BME280;22678;52.052;4.242;2023-06-05T11:22:30;102381.56;;;23.69;41.59
36692;BME280;22678;52.052;4.242;2023-06-05T11:27:50;102382.09;;;23.78;41.07
36692;BME280;22678;52.052;4.242;2023-06-05T11:30:17;102380.47;;;23.74;40.94
36692;BME280;22678;52.052;4.242;2023-06-05T11:32:43;102376.56;;;23.59;41.02
36692;BME280;22678;52.052;4.242;2023-06-05T11:35:09;102372.97;;;23.60;41.33
36692;BME280;22678;52.052;4.242;2023-06-05T11:37:35;102369.34;;;23.61;41.15
36692;BME280;22678;52.052;4.242;2023-06-05T11:40:02;102371.91;;;23.65;40.96
36692;BME280;22678;52.052;4.242;2023-06-05T11:42:39;102369.78;;;23.73;41.11
36692;BME280;22678;52.052;4.242;2023-06-05T11:45:11;102371.09;;;23.85;40.80
36692;BME280;22678;52.052;4.242;2023-06-05T11:47:37;102375.91;;;24.00;40.87
36692;BME280;22678;52.052;4.242;2023-06-05T11:50:10;102361.50;;;24.01;40.44
36692;BME280;22678;52.052;4.242;2023-06-05T11:52:36;102359.53;;;24.06;40.51
36692;BME280;22678;52.052;4.242;2023-06-05T11:55:18;102383.25;;;24.17;40.56
36692;BME280;22678;52.052;4.242;2023-06-05T11:57:48;102378.41;;;24.27;40.42
36692;BME280;22678;52.052;4.242;2023-06-05T12:00:22;102363.97;;;24.29;40.00
36692;BME280;22678;52.052;4.242;2023-06-05T12:02:48;102372.50;;;24.39;39.85
36692;BME280;22678;52.052;4.242;2023-06-05T12:05:14;102385.00;;;24.40;39.55
36692;BME280;22678;52.052;4.242;2023-06-05T12:07:40;102376.06;;;24.40;39.64
36692;BME280;22678;52.052;4.242;2023-06-05T12:10:07;102374.44;;;24.36;39.14
36692;BME280;22678;52.052;4.242;2023-06-05T12:12:34;102361.13;;;24.33;39.48
36692;BME280;22678;52.052;4.242;2023-06-05T12:15:15;102361.28;;;24.29;39.42
36692;BME280;22678;52.052;4.242;2023-06-05T12:17:41;102362.50;;;24.43;40.00
36692;BME280;22678;52.052;4.242;2023-06-05T12:20:13;102358.06;;;24.42;39.17
36692;BME280;22678;52.052;4.242;2023-06-05T12:22:39;102374.25;;;24.40;39.19
36692;BME280;22678;52.052;4.242;2023-06-05T12:25:21;102372.69;;;24.35;39.46
36692;BME280;22678;52.052;4.242;2023-06-05T12:27:47;102358.38;;;24.34;39.48
36692;BME280;22678;52.052;4.242;2023-06-05T12:30:14;102363.44;;;24.42;39.29
36692;BME280;22678;52.052;4.242;2023-06-05T12:32:42;102360.94;;;24.37;39.27
36692;BME280;22678;52.052;4.242;2023-06-05T12:35:23;102366.38;;;24.36;39.63
36692;BME280;22678;52.052;4.242;2023-06-05T12:37:50;102366.50;;;24.33;39.39
36692;BME280;22678;52.052;4.242;2023-06-05T12:40:16;102352.66;;;24.21;39.43
36692;BME280;22678;52.052;4.242;2023-06-05T12:42:46;102368.31;;;24.32;39.66
36692;BME280;22678;52.052;4.242;2023-06-05T12:45:12;102376.06;;;24.40;39.75
36692;BME280;22678;52.052;4.242;2023-06-05T12:47:39;102362.75;;;24.37;39.37
36692;BME280;22678;52.052;4.242;2023-06-05T12:50:06;102372.69;;;24.35;39.26
36692;BME280;22678;52.052;4.242;2023-06-05T12:52:41;102357.03;;;24.24;39.04
36692;BME280;22678;52.052;4.242;2023-06-05T12:55:07;102369.13;;;24.34;39.97
36692;BME280;22678;52.052;4.242;2023-06-05T12:57:33;102357.91;;;24.45;39.76
36692;BME280;22678;52.052;4.242;2023-06-05T13:00:02;102363.03;;;24.51;39.30
36692;BME280;22678;52.052;4.242;2023-06-05T13:02:35;102354.09;;;24.51;39.26
36692;BME280;22678;52.052;4.242;2023-06-05T13:05:01;102342.72;;;24.44;38.92
36692;BME280;22678;52.052;4.242;2023-06-05T13:07:28;102355.16;;;24.46;39.56
36692;BME280;22678;52.052;4.242;2023-06-05T13:09:54;102340.56;;;24.31;39.15
36692;BME280;22678;52.052;4.242;2023-06-05T13:12:20;102347.00;;;24.27;39.51
36692;BME280;22678;52.052;4.242;2023-06-05T13:14:45;102338.00;;;24.28;39.97
36692;BME280;22678;52.052;4.242;2023-06-05T13:17:11;102355.50;;;24.39;39.95
36692;BME280;22678;52.052;4.242;2023-06-05T13:19:36;102330.75;;;24.30;39.96
36692;BME280;22678;52.052;4.242;2023-06-05T13:22:01;102331.84;;;24.47;40.10